sensor_id;sensor_type;location;lat;lon;timestamp;pressure;altitude;pressure_sealevel;temperature;humidity
14273;BME280;7220;49.450;11.052;2022-12-18T00:03:18;99530.88;;;-8.53;95.42
14273;BME280;7220;49.450;11.052;2022-12-18T00:07:18;99537.78;;;-8.72;94.85
14273;BME280;7220;49.450;11.052;2022-12-18T00:11:21;99533.03;;;-8.82;94.87
14273;BME280;7220;49.450;11.052;2022-12-18T00:15:21;99519.38;;;-8.99;95.12
14273;BME280;7220;49.450;11.052;2022-12-18T00:19:22;99531.50;;;-8.96;95.50
14273;BME280;7220;49.450;11.052;2022-12-18T00:23:22;99516.88;;;-8.97;95.88
14273;BME280;7220;49.450;11.052;2022-12-18T00:27:22;99520.28;;;-8.98;95.77
14273;BME280;7220;49.450;11.052;2022-12-18T00:31:24;99515.13;;;-8.98;95.06
14273;BME280;7220;49.450;11.052;2022-12-18T00:35:24;99516.47;;;-9.07;95.04
14273;BME280;7220;49.450;11.052;2022-12-18T00:39:25;99525.75;;;-9.10;94.66
14273;BME280;7220;49.450;11.052;2022-12-18T00:43:25;99532.66;;;-9.09;94.83
14273;BME280;7220;49.450;11.052;2022-12-18T00:47:25;99537.59;;;-9.14;95.13
14273;BME280;7220;49.450;11.052;2022-12-18T00:51:26;99539.28;;;-9.14;94.63
14273;BME280;7220;49.450;11.052;2022-12-18T00:55:26;99542.59;;;-9.17;95.07
14273;BME280;7220;49.450;11.052;2022-12-18T00:59:26;99520.75;;;-9.25;95.29
14273;BME280;7220;49.450;11.052;2022-12-18T01:03:27;99536.63;;;-9.16;95.76
14273;BME280;7220;49.450;11.052;2022-12-18T01:07:27;99546.19;;;-9.13;96.20
14273;BME280;7220;49.450;11.052;2022-12-18T01:11:27;99542.59;;;-9.17;95.60
14273;BME280;7220;49.450;11.052;2022-12-18T01:15:28;99568.63;;;-9.11;95.46
14273;BME280;7220;49.450;11.052;2022-12-18T01:19:28;99563.41;;;-9.12;95.29
14273;BME280;7220;49.450;11.052;2022-12-18T01:23:28;99561.59;;;-9.15;95.54
14273;BME280;7220;49.450;11.052;2022-12-18T01:27:29;99563.94;;;-9.20;96.10
14273;BME280;7220;49.450;11.052;2022-12-18T01:31:31;99579.44;;;-9.18;98.66
14273;BME280;7220;49.450;11.052;2022-12-18T01:35:32;99568.41;;;-9.15;99.72
14273;BME280;7220;49.450;11.052;2022-12-18T01:39:33;99588.28;;;-9.13;100.00
14273;BME280;7220;49.450;11.052;2022-12-18T01:43:55;99579.72;;;-9.12;100.00
14273;BME280;7220;49.450;11.052;2022-12-18T01:48:06;99579.88;;;-9.09;100.00
14273;BME280;7220;49.450;11.052;2022-12-18T01:52:07;99571.34;;;-9.08;100.00
14273;BME280;7220;49.450;11.052;2022-12-18T01:56:08;99581.66;;;-9.08;100.00
14273;BME280;7220;49.450;11.052;2022-12-18T02:00:21;99600.78;;;-9.02;100.00
14273;BME280;7220;49.450;11.052;2022-12-18T02:04:26;99587.09;;;-9.01;100.00
14273;BME280;7220;49.450;11.052;2022-12-18T02:08:34;99577.81;;;-8.98;100.00
14273;BME280;7220;49.450;11.052;2022-12-18T02:12:46;99591.88;;;-8.91;100.00
14273;BME280;7220;49.450;11.052;2022-12-18T02:17:03;99594.72;;;-8.85;100.00
14273;BME280;7220;49.450;11.052;2022-12-18T02:21:14;99593.53;;;-8.74;100.00
14273;BME280;7220;49.450;11.052;2022-12-18T02:29:45;99588.22;;;-8.57;100.00
14273;BME280;7220;49.450;11.052;2022-12-18T02:33:49;99577.41;;;-8.50;100.00
14273;BME280;7220;49.450;11.052;2022-12-18T02:37:55;99573.50;;;-8.40;100.00
14273;BME280;7220;49.450;11.052;2022-12-18T02:41:56;99560.81;;;-8.35;100.00
14273;BME280;7220;49.450;11.052;2022-12-18T02:45:59;99567.19;;;-8.27;100.00
14273;BME280;7220;49.450;11.052;2022-12-18T02:54:36;99593.03;;;-8.06;100.00
14273;BME280;7220;49.450;11.052;2022-12-18T03:03:31;99606.09;;;-7.82;100.00
14273;BME280;7220;49.450;11.052;2022-12-18T03:07:58;99593.63;;;-7.71;100.00
14273;BME280;7220;49.450;11.052;2022-12-18T03:12:18;99566.44;;;-7.63;100.00
14273;BME280;7220;49.450;11.052;2022-12-18T03:16:27;99562.47;;;-7.54;100.00
14273;BME280;7220;49.450;11.052;2022-12-18T03:20:31;99563.81;;;-7.43;100.00
14273;BME280;7220;49.450;11.052;2022-12-18T03:24:35;99574.69;;;-7.29;100.00
14273;BME280;7220;49.450;11.052;2022-12-18T03:28:44;99581.97;;;-7.19;100.00
14273;BME280;7220;49.450;11.052;2022-12-18T03:32:54;99578.88;;;-7.10;100.00
14273;BME280;7220;49.450;11.052;2022-12-18T03:36:56;99578.13;;;-7.07;100.00
14273;BME280;7220;49.450;11.052;2022-12-18T03:45:35;99587.59;;;-6.85;100.00
14273;BME280;7220;49.450;11.052;2022-12-18T03:49:48;99573.59;;;-6.90;100.00
14273;BME280;7220;49.450;11.052;2022-12-18T03:54:00;99585.41;;;-6.74;100.00
14273;BME280;7220;49.450;11.052;2022-12-18T03:58:03;99574.47;;;-6.67;100.00
14273;BME280;7220;49.450;11.052;2022-12-18T04:02:06;99582.41;;;-6.62;100.00
14273;BME280;7220;49.450;11.052;2022-12-18T04:06:08;99591.31;;;-6.54;100.00
14273;BME280;7220;49.450;11.052;2022-12-18T04:10:12;99598.41;;;-6.48;100.00
14273;BME280;7220;49.450;11.052;2022-12-18T04:14:14;99601.84;;;-6.50;100.00
14273;BME280;7220;49.450;11.052;2022-12-18T04:18:14;99608.28;;;-6.38;100.00
14273;BME280;7220;49.450;11.052;2022-12-18T04:22:15;99600.69;;;-6.34;100.00
14273;BME280;7220;49.450;11.052;2022-12-18T04:26:15;99591.16;;;-6.35;100.00
14273;BME280;7220;49.450;11.052;2022-12-18T04:30:15;99606.19;;;-6.24;100.00
14273;BME280;7220;49.450;11.052;2022-12-18T04:34:16;99619.31;;;-6.20;100.00
14273;BME280;7220;49.450;11.052;2022-12-18T04:38:16;99603.00;;;-6.17;100.00
14273;BME280;7220;49.450;11.052;2022-12-18T04:42:16;99613.56;;;-6.11;100.00
14273;BME280;7220;49.450;11.052;2022-12-18T04:46:16;99612.75;;;-6.10;100.00
14273;BME280;7220;49.450;11.052;2022-12-18T04:50:17;99611.16;;;-6.06;100.00
14273;BME280;7220;49.450;11.052;2022-12-18T04:54:17;99618.13;;;-6.04;100.00
14273;BME280;7220;49.450;11.052;2022-12-18T04:58:18;99599.94;;;-6.07;100.00
14273;BME280;7220;49.450;11.052;2022-12-18T05:02:18;99592.34;;;-6.02;100.00
14273;BME280;7220;49.450;11.052;2022-12-18T05:06:18;99602.78;;;-5.99;100.00
14273;BME280;7220;49.450;11.052;2022-12-18T05:10:19;99600.22;;;-5.97;100.00
14273;BME280;7220;49.450;11.052;2022-12-18T05:14:19;99585.53;;;-5.98;100.00
14273;BME280;7220;49.450;11.052;2022-12-18T05:18:20;99587.50;;;-5.91;100.00
14273;BME280;7220;49.450;11.052;2022-12-18T05:22:21;99598.00;;;-5.87;100.00
14273;BME280;7220;49.450;11.052;2022-12-18T05:26:21;99594.59;;;-5.86;100.00
14273;BME280;7220;49.450;11.052;2022-12-18T05:30:21;99606.69;;;-5.84;100.00
14273;BME280;7220;49.450;11.052;2022-12-18T05:34:22;99613.75;;;-5.80;100.00
14273;BME280;7220;49.450;11.052;2022-12-18T05:38:23;99613.88;;;-5.77;100.00
14273;BME280;7220;49.450;11.052;2022-12-18T05:42:24;99603.50;;;-5.77;100.00
14273;BME280;7220;49.450;11.052;2022-12-18T05:46:25;99600.22;;;-5.72;100.00
14273;BME280;7220;49.450;11.052;2022-12-18T05:50:25;99607.16;;;-5.71;100.00
14273;BME280;7220;49.450;11.052;2022-12-18T05:54:28;99607.25;;;-5.69;100.00
14273;BME280;7220;49.450;11.052;2022-12-18T05:58:30;99603.88;;;-5.66;100.00
14273;BME280;7220;49.450;11.052;2022-12-18T06:02:30;99615.22;;;-5.63;100.00
14273;BME280;7220;49.450;11.052;2022-12-18T06:06:30;99607.38;;;-5.64;100.00
14273;BME280;7220;49.450;11.052;2022-12-18T06:10:31;99619.66;;;-5.59;100.00
14273;BME280;7220;49.450;11.052;2022-12-18T06:14:31;99630.22;;;-5.52;100.00
14273;BME280;7220;49.450;11.052;2022-12-18T06:18:32;99632.75;;;-5.54;100.00
14273;BME280;7220;49.450;11.052;2022-12-18T06:22:32;99630.13;;;-5.56;100.00
14273;BME280;7220;49.450;11.052;2022-12-18T06:26:33;99628.47;;;-5.53;100.00
14273;BME280;7220;49.450;11.052;2022-12-18T06:30:33;99599.59;;;-5.64;100.00
14273;BME280;7220;49.450;11.052;2022-12-18T06:34:34;99632.09;;;-5.48;100.00
14273;BME280;7220;49.450;11.052;2022-12-18T06:38:38;99646.00;;;-5.46;100.00
14273;BME280;7220;49.450;11.052;2022-12-18T06:42:39;99648.50;;;-5.48;100.00
14273;BME280;7220;49.450;11.052;2022-12-18T06:46:39;99642.56;;;-5.45;100.00
14273;BME280;7220;49.450;11.052;2022-12-18T06:50:42;99646.91;;;-5.44;100.00
14273;BME280;7220;49.450;11.052;2022-12-18T06:54:42;99642.56;;;-5.45;100.00
14273;BME280;7220;49.450;11.052;2022-12-18T06:58:43;99637.41;;;-5.45;100.00
14273;BME280;7220;49.450;11.052;2022-12-18T07:02:43;99628.56;;;-5.50;100.00
14273;BME280;7220;49.450;11.052;2022-12-18T07:06:44;99649.59;;;-5.41;100.00
14273;BME280;7220;49.450;11.052;2022-12-18T07:10:44;99632.25;;;-5.44;100.00
14273;BME280;7220;49.450;11.052;2022-12-18T07:14:44;99642.00;;;-5.36;100.00
14273;BME280;7220;49.450;11.052;2022-12-18T07:18:45;99646.59;;;-5.28;100.00
14273;BME280;7220;49.450;11.052;2022-12-18T07:22:45;99628.41;;;-5.29;100.00
14273;BME280;7220;49.450;11.052;2022-12-18T07:26:46;99637.34;;;-5.19;100.00
14273;BME280;7220;49.450;11.052;2022-12-18T07:30:47;99633.06;;;-5.19;100.00
14273;BME280;7220;49.450;11.052;2022-12-18T07:34:47;99621.09;;;-5.15;100.00
14273;BME280;7220;49.450;11.052;2022-12-18T07:38:48;99651.72;;;-5.03;100.00
14273;BME280;7220;49.450;11.052;2022-12-18T07:42:49;99646.50;;;-5.05;100.00
14273;BME280;7220;49.450;11.052;2022-12-18T07:46:49;99659.44;;;-5.05;100.00
14273;BME280;7220;49.450;11.052;2022-12-18T07:50:49;99673.44;;;-5.00;100.00
14273;BME280;7220;49.450;11.052;2022-12-18T07:54:50;99676.19;;;-4.95;100.00
14273;BME280;7220;49.450;11.052;2022-12-18T07:58:50;99669.38;;;-4.92;100.00
14273;BME280;7220;49.450;11.052;2022-12-18T08:02:50;99677.44;;;-4.82;100.00
14273;BME280;7220;49.450;11.052;2022-12-18T08:06:51;99670.78;;;-4.74;100.00
14273;BME280;7220;49.450;11.052;2022-12-18T08:10:51;99662.44;;;-4.64;100.00
14273;BME280;7220;49.450;11.052;2022-12-18T08:14:51;99669.59;;;-4.56;100.00
14273;BME280;7220;49.450;11.052;2022-12-18T08:18:52;99685.69;;;-4.39;100.00
14273;BME280;7220;49.450;11.052;2022-12-18T08:22:53;99672.78;;;-4.36;100.00
14273;BME280;7220;49.450;11.052;2022-12-18T08:26:54;99678.47;;;-4.21;100.00
14273;BME280;7220;49.450;11.052;2022-12-18T08:30:54;99663.06;;;-4.15;100.00
14273;BME280;7220;49.450;11.052;2022-12-18T08:34:54;99679.88;;;-4.02;100.00
14273;BME280;7220;49.450;11.052;2022-12-18T08:38:56;99677.47;;;-3.94;100.00
14273;BME280;7220;49.450;11.052;2022-12-18T08:42:56;99666.63;;;-3.81;100.00
14273;BME280;7220;49.450;11.052;2022-12-18T08:47:15;99672.00;;;-3.73;100.00
14273;BME280;7220;49.450;11.052;2022-12-18T08:51:16;99687.88;;;-3.62;100.00
14273;BME280;7220;49.450;11.052;2022-12-18T08:55:17;99671.56;;;-3.58;100.00
14273;BME280;7220;49.450;11.052;2022-12-18T08:59:18;99672.69;;;-3.48;100.00
14273;BME280;7220;49.450;11.052;2022-12-18T09:03:19;99654.47;;;-3.48;100.00
14273;BME280;7220;49.450;11.052;2022-12-18T09:07:22;99653.88;;;-3.38;100.00
14273;BME280;7220;49.450;11.052;2022-12-18T09:11:24;99660.94;;;-3.32;100.00
14273;BME280;7220;49.450;11.052;2022-12-18T09:15:25;99663.72;;;-3.26;100.00
14273;BME280;7220;49.450;11.052;2022-12-18T09:19:26;99654.44;;;-3.16;100.00
14273;BME280;7220;49.450;11.052;2022-12-18T09:23:26;99667.00;;;-2.98;100.00
14273;BME280;7220;49.450;11.052;2022-12-18T09:27:26;99675.00;;;-2.90;100.00
14273;BME280;7220;49.450;11.052;2022-12-18T09:31:27;99663.94;;;-2.80;100.00
14273;BME280;7220;49.450;11.052;2022-12-18T09:35:27;99654.59;;;-2.72;100.00
14273;BME280;7220;49.450;11.052;2022-12-18T09:39:27;99648.78;;;-2.61;100.00
14273;BME280;7220;49.450;11.052;2022-12-18T09:43:35;99651.72;;;-2.46;100.00
14273;BME280;7220;49.450;11.052;2022-12-18T09:47:39;99636.41;;;-2.32;100.00
14273;BME280;7220;49.450;11.052;2022-12-18T09:51:46;99637.53;;;-2.20;99.46
14273;BME280;7220;49.450;11.052;2022-12-18T09:55:48;99625.56;;;-2.11;98.18
14273;BME280;7220;49.450;11.052;2022-12-18T09:59:53;99643.94;;;-2.03;97.49
14273;BME280;7220;49.450;11.052;2022-12-18T10:03:55;99638.91;;;-1.94;96.54
14273;BME280;7220;49.450;11.052;2022-12-18T10:08:01;99644.28;;;-1.86;96.42
14273;BME280;7220;49.450;11.052;2022-12-18T10:12:11;99639.97;;;-1.84;95.30
14273;BME280;7220;49.450;11.052;2022-12-18T10:16:19;99640.69;;;-1.91;94.31
14273;BME280;7220;49.450;11.052;2022-12-18T10:21:05;99621.53;;;-1.95;94.11
14273;BME280;7220;49.450;11.052;2022-12-18T10:29:14;99606.81;;;-1.91;93.47
14273;BME280;7220;49.450;11.052;2022-12-18T10:33:18;99617.44;;;-1.82;93.64
14273;BME280;7220;49.450;11.052;2022-12-18T10:37:21;99609.03;;;-1.67;92.41
14273;BME280;7220;49.450;11.052;2022-12-18T10:41:25;99616.53;;;-1.36;92.03
14273;BME280;7220;49.450;11.052;2022-12-18T10:45:26;99620.34;;;-1.16;91.18
14273;BME280;7220;49.450;11.052;2022-12-18T10:49:29;99633.16;;;-1.28;90.29
14273;BME280;7220;49.450;11.052;2022-12-18T10:53:33;99628.56;;;-1.45;90.11
14273;BME280;7220;49.450;11.052;2022-12-18T10:57:36;99629.31;;;-1.50;90.57
14273;BME280;7220;49.450;11.052;2022-12-18T11:01:57;99631.06;;;-1.49;90.11
14273;BME280;7220;49.450;11.052;2022-12-18T11:06:03;99640.50;;;-1.56;90.45
14273;BME280;7220;49.450;11.052;2022-12-18T11:10:04;99646.53;;;-1.59;89.74
14273;BME280;7220;49.450;11.052;2022-12-18T11:14:12;99639.59;;;-1.58;90.25
14273;BME280;7220;49.450;11.052;2022-12-18T11:18:39;99621.41;;;-1.55;89.57
14273;BME280;7220;49.450;11.052;2022-12-18T11:22:40;99611.81;;;-1.56;89.70
14273;BME280;7220;49.450;11.052;2022-12-18T11:26:40;99622.31;;;-1.53;89.53
14273;BME280;7220;49.450;11.052;2022-12-18T11:30:43;99597.78;;;-1.63;89.68
14273;BME280;7220;49.450;11.052;2022-12-18T11:34:48;99622.16;;;-1.61;88.76
14273;BME280;7220;49.450;11.052;2022-12-18T11:38:53;99601.41;;;-1.56;89.45
14273;BME280;7220;49.450;11.052;2022-12-18T11:43:06;99608.34;;;-1.56;89.47
14273;BME280;7220;49.450;11.052;2022-12-18T11:47:28;99580.63;;;-1.51;89.02
14273;BME280;7220;49.450;11.052;2022-12-18T11:51:46;99592.06;;;-1.45;89.00
14273;BME280;7220;49.450;11.052;2022-12-18T12:00:15;99566.63;;;-1.01;88.78
14273;BME280;7220;49.450;11.052;2022-12-18T12:21:40;99546.97;;;-0.07;83.19
14273;BME280;7220;49.450;11.052;2022-12-18T12:30:11;99559.31;;;0.08;82.04
14273;BME280;7220;49.450;11.052;2022-12-18T12:34:21;99532.25;;;0.02;81.13
14273;BME280;7220;49.450;11.052;2022-12-18T12:38:32;99547.13;;;0.07;81.32
14273;BME280;7220;49.450;11.052;2022-12-18T12:42:41;99538.34;;;0.02;80.96
14273;BME280;7220;49.450;11.052;2022-12-18T12:47:17;99520.78;;;-0.13;80.50
14273;BME280;7220;49.450;11.052;2022-12-18T12:51:27;99554.88;;;-0.02;80.48
14273;BME280;7220;49.450;11.052;2022-12-18T12:55:29;99553.06;;;-0.06;80.19
14273;BME280;7220;49.450;11.052;2022-12-18T13:04:01;99529.59;;;-0.03;80.69
14273;BME280;7220;49.450;11.052;2022-12-18T13:08:09;99546.19;;;-0.01;80.07
14273;BME280;7220;49.450;11.052;2022-12-18T13:12:11;99538.28;;;-0.04;80.56
14273;BME280;7220;49.450;11.052;2022-12-18T13:16:30;99532.09;;;-0.14;80.71
14273;BME280;7220;49.450;11.052;2022-12-18T13:24:37;99529.47;;;-0.14;81.16
14273;BME280;7220;49.450;11.052;2022-12-18T13:32:46;99516.25;;;-0.28;80.93
14273;BME280;7220;49.450;11.052;2022-12-18T13:36:47;99515.34;;;-0.33;81.10
14273;BME280;7220;49.450;11.052;2022-12-18T13:44:48;99517.78;;;-0.44;82.21
14273;BME280;7220;49.450;11.052;2022-12-18T13:48:58;99546.50;;;-0.49;82.40
14273;BME280;7220;49.450;11.052;2022-12-18T13:53:00;99524.59;;;-0.58;83.27
14273;BME280;7220;49.450;11.052;2022-12-18T13:57:01;99525.47;;;-0.58;83.53
14273;BME280;7220;49.450;11.052;2022-12-18T14:01:01;99517.53;;;-0.67;83.84
14273;BME280;7220;49.450;11.052;2022-12-18T14:05:02;99516.50;;;-0.78;83.98
14273;BME280;7220;49.450;11.052;2022-12-18T14:09:02;99500.69;;;-0.91;84.34
14273;BME280;7220;49.450;11.052;2022-12-18T14:13:06;99518.81;;;-1.02;84.79
14273;BME280;7220;49.450;11.052;2022-12-18T14:17:10;99500.34;;;-1.16;85.18
14273;BME280;7220;49.450;11.052;2022-12-18T14:21:20;99495.03;;;-1.22;86.11
14273;BME280;7220;49.450;11.052;2022-12-18T14:25:24;99501.78;;;-1.36;86.18
14273;BME280;7220;49.450;11.052;2022-12-18T14:29:30;99508.63;;;-1.45;86.76
14273;BME280;7220;49.450;11.052;2022-12-18T14:33:31;99520.66;;;-1.53;87.61
14273;BME280;7220;49.450;11.052;2022-12-18T14:37:31;99521.31;;;-1.65;87.85
14273;BME280;7220;49.450;11.052;2022-12-18T14:41:31;99518.50;;;-1.76;88.67
14273;BME280;7220;49.450;11.052;2022-12-18T14:45:36;99534.94;;;-1.80;89.12
14273;BME280;7220;49.450;11.052;2022-12-18T14:49:40;99519.97;;;-1.93;89.58
14273;BME280;7220;49.450;11.052;2022-12-18T14:53:44;99525.00;;;-2.02;89.76
14273;BME280;7220;49.450;11.052;2022-12-18T14:57:49;99525.66;;;-2.13;90.04
14273;BME280;7220;49.450;11.052;2022-12-18T15:06:37;99528.81;;;-2.29;91.52
14273;BME280;7220;49.450;11.052;2022-12-18T15:10:46;99522.47;;;-2.44;91.83
14273;BME280;7220;49.450;11.052;2022-12-18T15:14:47;99537.97;;;-2.50;91.83
14273;BME280;7220;49.450;11.052;2022-12-18T15:18:48;99534.34;;;-2.58;92.21
14273;BME280;7220;49.450;11.052;2022-12-18T15:22:48;99534.25;;;-2.63;93.04
14273;BME280;7220;49.450;11.052;2022-12-18T15:26:48;99531.47;;;-2.71;93.47
14273;BME280;7220;49.450;11.052;2022-12-18T15:31:20;99538.19;;;-2.80;93.32
14273;BME280;7220;49.450;11.052;2022-12-18T15:35:25;99534.66;;;-2.84;94.30
14273;BME280;7220;49.450;11.052;2022-12-18T15:39:25;99536.28;;;-2.89;94.28
14273;BME280;7220;49.450;11.052;2022-12-18T15:43:27;99547.47;;;-2.92;94.54
14273;BME280;7220;49.450;11.052;2022-12-18T15:47:33;99536.84;;;-3.03;94.39
14273;BME280;7220;49.450;11.052;2022-12-18T15:51:37;99534.22;;;-3.04;94.84
14273;BME280;7220;49.450;11.052;2022-12-18T15:55:38;99540.25;;;-3.05;94.96
14273;BME280;7220;49.450;11.052;2022-12-18T15:59:57;99548.88;;;-3.08;94.91
14273;BME280;7220;49.450;11.052;2022-12-18T16:03:58;99554.00;;;-3.11;94.90
14273;BME280;7220;49.450;11.052;2022-12-18T16:07:58;99537.38;;;-3.18;94.89
14273;BME280;7220;49.450;11.052;2022-12-18T16:11:58;99536.44;;;-3.21;95.08
14273;BME280;7220;49.450;11.052;2022-12-18T16:15:59;99531.25;;;-3.21;95.22
14273;BME280;7220;49.450;11.052;2022-12-18T16:19:59;99531.97;;;-3.27;95.38
14273;BME280;7220;49.450;11.052;2022-12-18T16:23:59;99552.69;;;-3.30;95.30
14273;BME280;7220;49.450;11.052;2022-12-18T16:27:59;99549.13;;;-3.34;95.46
14273;BME280;7220;49.450;11.052;2022-12-18T16:32:00;99549.91;;;-3.38;95.58
14273;BME280;7220;49.450;11.052;2022-12-18T16:36:00;99532.41;;;-3.45;95.92
14273;BME280;7220;49.450;11.052;2022-12-18T16:40:01;99530.66;;;-3.46;96.20
14273;BME280;7220;49.450;11.052;2022-12-18T16:44:02;99520.03;;;-3.55;96.34
14273;BME280;7220;49.450;11.052;2022-12-18T16:48:02;99539.06;;;-3.56;96.95
14273;BME280;7220;49.450;11.052;2022-12-18T16:52:04;99531.13;;;-3.62;96.90
14273;BME280;7220;49.450;11.052;2022-12-18T16:56:05;99524.88;;;-3.69;97.19
14273;BME280;7220;49.450;11.052;2022-12-18T17:00:06;99530.19;;;-3.65;97.50
14273;BME280;7220;49.450;11.052;2022-12-18T17:04:07;99525.72;;;-3.70;97.55
14273;BME280;7220;49.450;11.052;2022-12-18T17:08:08;99517.81;;;-3.75;97.70
14273;BME280;7220;49.450;11.052;2022-12-18T17:12:08;99519.50;;;-3.77;98.15
14273;BME280;7220;49.450;11.052;2022-12-18T17:16:09;99512.56;;;-3.76;98.17
14273;BME280;7220;49.450;11.052;2022-12-18T17:20:09;99493.19;;;-3.91;98.29
14273;BME280;7220;49.450;11.052;2022-12-18T17:24:09;99524.63;;;-3.80;98.35
14273;BME280;7220;49.450;11.052;2022-12-18T17:28:10;99507.19;;;-3.84;98.93
14273;BME280;7220;49.450;11.052;2022-12-18T17:32:11;99510.66;;;-3.85;98.52
14273;BME280;7220;49.450;11.052;2022-12-18T17:36:11;99506.09;;;-3.92;99.18
14273;BME280;7220;49.450;11.052;2022-12-18T17:40:12;99513.06;;;-3.91;98.94
14273;BME280;7220;49.450;11.052;2022-12-18T17:44:12;99509.59;;;-3.92;99.13
14273;BME280;7220;49.450;11.052;2022-12-18T17:48:12;99511.28;;;-3.94;99.56
14273;BME280;7220;49.450;11.052;2022-12-18T17:52:13;99512.94;;;-3.96;99.47
14273;BME280;7220;49.450;11.052;2022-12-18T17:56:15;99506.03;;;-3.96;99.62
14273;BME280;7220;49.450;11.052;2022-12-18T18:00:17;99506.00;;;-3.97;99.88
14273;BME280;7220;49.450;11.052;2022-12-18T18:04:17;99504.38;;;-3.93;99.89
14273;BME280;7220;49.450;11.052;2022-12-18T18:08:18;99499.00;;;-4.00;100.00
14273;BME280;7220;49.450;11.052;2022-12-18T18:12:18;99493.88;;;-3.98;100.00
14273;BME280;7220;49.450;11.052;2022-12-18T18:16:42;99501.69;;;-3.97;100.00
14273;BME280;7220;49.450;11.052;2022-12-18T18:20:43;99494.72;;;-3.98;100.00
14273;BME280;7220;49.450;11.052;2022-12-18T18:24:43;99494.00;;;-3.92;100.00
14273;BME280;7220;49.450;11.052;2022-12-18T18:28:44;99468.63;;;-4.04;100.00
14273;BME280;7220;49.450;11.052;2022-12-18T18:32:44;99491.44;;;-3.90;100.00
14273;BME280;7220;49.450;11.052;2022-12-18T18:36:44;99491.53;;;-3.87;100.00
14273;BME280;7220;49.450;11.052;2022-12-18T18:40:45;99487.97;;;-3.91;100.00
14273;BME280;7220;49.450;11.052;2022-12-18T18:44:45;99490.69;;;-3.86;100.00
14273;BME280;7220;49.450;11.052;2022-12-18T18:48:45;99487.16;;;-3.90;100.00
14273;BME280;7220;49.450;11.052;2022-12-18T18:52:46;99483.78;;;-3.86;100.00
14273;BME280;7220;49.450;11.052;2022-12-18T18:56:49;99483.75;;;-3.87;100.00
14273;BME280;7220;49.450;11.052;2022-12-18T19:00:54;99472.53;;;-3.86;99.99
14273;BME280;7220;49.450;11.052;2022-12-18T19:04:55;99468.19;;;-3.86;99.83
14273;BME280;7220;49.450;11.052;2022-12-18T19:08:56;99480.34;;;-3.85;99.64
14273;BME280;7220;49.450;11.052;2022-12-18T19:12:57;99476.00;;;-3.84;99.68
14273;BME280;7220;49.450;11.052;2022-12-18T19:17:15;99469.13;;;-3.84;99.52
14273;BME280;7220;49.450;11.052;2022-12-18T19:21:16;99463.09;;;-3.83;99.75
14273;BME280;7220;49.450;11.052;2022-12-18T19:25:16;99472.66;;;-3.80;99.59
14273;BME280;7220;49.450;11.052;2022-12-18T19:29:17;99459.59;;;-3.83;99.51
14273;BME280;7220;49.450;11.052;2022-12-18T19:33:17;99452.81;;;-3.78;99.94
14273;BME280;7220;49.450;11.052;2022-12-18T19:37:17;99444.94;;;-3.81;100.00
14273;BME280;7220;49.450;11.052;2022-12-18T19:41:19;99451.06;;;-3.77;99.94
14273;BME280;7220;49.450;11.052;2022-12-18T19:45:19;99450.22;;;-3.78;99.92
14273;BME280;7220;49.450;11.052;2022-12-18T19:49:22;99442.41;;;-3.78;99.99
14273;BME280;7220;49.450;11.052;2022-12-18T19:53:23;99445.97;;;-3.74;100.00
14273;BME280;7220;49.450;11.052;2022-12-18T19:57:23;99449.41;;;-3.75;100.00
14273;BME280;7220;49.450;11.052;2022-12-18T20:01:24;99459.84;;;-3.72;100.00
14273;BME280;7220;49.450;11.052;2022-12-18T20:05:25;99447.78;;;-3.70;100.00
14273;BME280;7220;49.450;11.052;2022-12-18T20:09:25;99438.16;;;-3.74;99.75
14273;BME280;7220;49.450;11.052;2022-12-18T20:13:25;99438.28;;;-3.70;100.00
14273;BME280;7220;49.450;11.052;2022-12-18T20:17:26;99458.25;;;-3.67;100.00
14273;BME280;7220;49.450;11.052;2022-12-18T20:21:26;99443.38;;;-3.73;99.69
14273;BME280;7220;49.450;11.052;2022-12-18T20:25:26;99448.66;;;-3.70;100.00
14273;BME280;7220;49.450;11.052;2022-12-18T20:29:27;99452.97;;;-3.70;100.00
14273;BME280;7220;49.450;11.052;2022-12-18T20:33:28;99445.25;;;-3.69;100.00
14273;BME280;7220;49.450;11.052;2022-12-18T20:37:28;99453.91;;;-3.67;100.00
14273;BME280;7220;49.450;11.052;2022-12-18T20:41:28;99435.72;;;-3.68;99.70
14273;BME280;7220;49.450;11.052;2022-12-18T20:45:29;99429.69;;;-3.66;99.70
14273;BME280;7220;49.450;11.052;2022-12-18T20:49:29;99439.34;;;-3.61;99.49
14273;BME280;7220;49.450;11.052;2022-12-18T20:53:31;99445.44;;;-3.59;99.57
14273;BME280;7220;49.450;11.052;2022-12-18T20:57:31;99429.78;;;-3.62;99.64
14273;BME280;7220;49.450;11.052;2022-12-18T21:01:31;99428.25;;;-3.54;99.04
14273;BME280;7220;49.450;11.052;2022-12-18T21:05:32;99409.13;;;-3.56;99.12
14273;BME280;7220;49.450;11.052;2022-12-18T21:09:32;99404.00;;;-3.53;99.13
14273;BME280;7220;49.450;11.052;2022-12-18T21:13:33;99401.41;;;-3.53;98.97
14273;BME280;7220;49.450;11.052;2022-12-18T21:17:34;99404.88;;;-3.53;98.59
14273;BME280;7220;49.450;11.052;2022-12-18T21:21:34;99412.66;;;-3.54;98.58
14273;BME280;7220;49.450;11.052;2022-12-18T21:25:35;99395.34;;;-3.52;98.28
14273;BME280;7220;49.450;11.052;2022-12-18T21:29:35;99405.69;;;-3.55;97.89
14273;BME280;7220;49.450;11.052;2022-12-18T21:33:36;99420.47;;;-3.53;97.83
14273;BME280;7220;49.450;11.052;2022-12-18T21:37:37;99408.25;;;-3.57;97.67
14273;BME280;7220;49.450;11.052;2022-12-18T21:41:37;99412.56;;;-3.57;97.83
14273;BME280;7220;49.450;11.052;2022-12-18T21:45:56;99404.75;;;-3.59;97.82
14273;BME280;7220;49.450;11.052;2022-12-18T21:49:56;99389.91;;;-3.63;97.52
14273;BME280;7220;49.450;11.052;2022-12-18T21:53:57;99393.44;;;-3.61;97.87
14273;BME280;7220;49.450;11.052;2022-12-18T21:57:57;99394.34;;;-3.59;97.76
14273;BME280;7220;49.450;11.052;2022-12-18T22:02:00;99389.16;;;-3.59;97.57
14273;BME280;7220;49.450;11.052;2022-12-18T22:06:00;99391.78;;;-3.57;97.84
14273;BME280;7220;49.450;11.052;2022-12-18T22:10:00;99387.47;;;-3.57;97.80
14273;BME280;7220;49.450;11.052;2022-12-18T22:14:01;99365.78;;;-3.57;97.71
14273;BME280;7220;49.450;11.052;2022-12-18T22:18:01;99373.69;;;-3.53;97.69
14273;BME280;7220;49.450;11.052;2022-12-18T22:22:01;99353.78;;;-3.52;97.87
14273;BME280;7220;49.450;11.052;2022-12-18T22:26:02;99373.78;;;-3.48;97.77
14273;BME280;7220;49.450;11.052;2022-12-18T22:30:03;99372.03;;;-3.49;97.38